Grahamville, Vermont
Current Conditions -  °F | °C
As of 10:54 AM on Friday 19 Dec 2014 (Local Time) from KVSF Reporting Station
Overcast Overcast  
Wind Chill: 23°   Ceiling: 2800
Heat Index: 30°   Visibility: 10mi
Dew Point: 20°   Wind: 7mph
Humidity: 66%   Direction: 310°NW
Pressure: 29.99"   Gusts: NA
Location:  43.3729°N, 72.7116°W
Report Text: KVSF 191554Z AUTO 31006KT 10SM OVC028 M01/M07 A2999 RMK AO2 SLP161 T10111067 TSNO
Loading
Personal Weather Stations






























Interactive Weather Map New forecast layout! Learn more

10-Day Weather Forecast

Advertisements
Track Severe Weather on mobile